Time;durP1;ratioP1;P1;durP2;ratioP2;P2;SDS_P1;SDS_P2;PMS_P1;PMS_P2;Temp;Humidity;BMP_temperature;BMP_pressure;BME280_temperature;BME280_humidity;BME280_pressure;Samples;Min_cycle;Max_cycle;Signal;HPM_P1;HPM_P2
2023/06/27 00:02:12;;;;;;;7.18;6.63;;;;;;;18.43;88.86;94810.38;5119898;28;20199;-67
2023/06/27 00:04:40;;;;;;;7.32;6.63;;;;;;;18.45;88.74;94817.16;5119200;28;20180;-67
2023/06/27 00:07:10;;;;;;;6.72;6.13;;;;;;;18.45;88.67;94813.56;5119404;28;20199;-67
2023/06/27 00:09:38;;;;;;;7.70;6.85;;;;;;;18.43;88.21;94819.53;5118404;28;20203;-67
2023/06/27 00:12:08;;;;;;;8.90;6.85;;;;;;;18.46;88.13;94809.56;5118399;28;20296;-67
2023/06/27 00:14:37;;;;;;;7.95;7.00;;;;;;;18.43;88.02;94816.75;5119286;28;20180;-67
2023/06/27 00:17:12;;;;;;;8.13;6.95;;;;;;;18.41;87.63;94808.00;5119324;28;20184;-67
2023/06/27 00:19:40;;;;;;;7.53;6.82;;;;;;;18.40;87.98;94808.41;5118340;28;20235;-68
2023/06/27 00:22:09;;;;;;;6.85;6.25;;;;;;;18.40;88.38;94811.97;5118640;28;20207;-67
2023/06/27 00:24:37;;;;;;;7.60;6.93;;;;;;;18.40;88.60;94809.19;5118408;28;20223;-67
2023/06/27 00:27:06;;;;;;;6.95;6.35;;;;;;;18.40;88.47;94816.78;5119157;28;20184;-67
2023/06/27 00:29:34;;;;;;;7.10;6.47;;;;;;;18.36;87.94;94814.00;5119038;28;20180;-67
2023/06/27 00:32:02;;;;;;;8.25;6.45;;;;;;;18.37;88.46;94817.59;5118081;28;20225;-68
2023/06/27 00:34:32;;;;;;;9.25;6.57;;;;;;;18.35;88.23;94815.22;5118193;28;20536;-67
2023/06/27 00:37:00;;;;;;;6.43;5.82;;;;;;;18.25;87.11;94816.88;5119204;28;20196;-68
2023/06/27 00:39:28;;;;;;;8.80;6.15;;;;;;;18.15;87.62;94812.16;5118613;28;20192;-67
2023/06/27 00:41:59;;;;;;;7.03;6.15;;;;;;;18.07;87.73;94816.19;5118156;28;20280;-67
2023/06/27 00:44:27;;;;;;;6.55;5.90;;;;;;;18.09;87.99;94811.00;5118787;28;20236;-67
2023/06/27 00:46:55;;;;;;;6.80;5.97;;;;;;;18.03;87.49;94807.84;5118193;28;20191;-66
2023/06/27 00:49:23;;;;;;;6.47;5.88;;;;;;;18.04;87.96;94808.63;5117638;28;20202;-66
2023/06/27 00:51:53;;;;;;;8.18;5.57;;;;;;;18.06;87.92;94809.03;5117727;28;20187;-66
2023/06/27 00:54:22;;;;;;;6.38;5.82;;;;;;;18.07;87.69;94807.81;5118627;28;20245;-66
2023/06/27 00:56:52;;;;;;;6.63;5.95;;;;;;;18.06;87.81;94805.44;5117650;28;20213;-67
2023/06/27 00:59:20;;;;;;;6.40;5.80;;;;;;;18.07;87.88;94805.03;5116865;28;20237;-66
2023/06/27 01:01:48;;;;;;;6.22;5.63;;;;;;;18.09;87.96;94805.44;5117448;28;20208;-66
2023/06/27 01:04:16;;;;;;;6.47;5.72;;;;;;;18.08;87.83;94803.03;5117535;28;20200;-66
2023/06/27 01:06:52;;;;;;;8.23;5.80;;;;;;;18.02;87.21;94800.69;5118681;28;20221;-66
2023/06/27 01:09:27;;;;;;;8.18;5.03;;;;;;;17.91;86.70;94811.09;5117623;28;20225;-66
2023/06/27 01:11:59;;;;;;;5.97;5.35;;;;;;;17.82;86.00;94805.16;5117072;28;20203;-67
2023/06/27 01:14:29;;;;;;;11.52;5.53;;;;;;;17.71;85.71;94805.19;5116943;28;20627;-66
2023/06/27 01:16:58;;;;;;;6.78;5.35;;;;;;;17.66;85.73;94796.44;5117220;28;20191;-67
2023/06/27 01:19:26;;;;;;;5.47;4.97;;;;;;;17.62;85.46;94807.63;5117235;28;20271;-67
2023/06/27 01:22:01;;;;;;;7.93;5.20;;;;;;;17.64;86.18;94802.41;5117054;28;20208;-67
2023/06/27 01:24:31;;;;;;;5.68;5.18;;;;;;;17.68;86.59;94805.19;5117540;28;20199;-67
2023/06/27 01:27:00;;;;;;;6.15;5.13;;;;;;;17.70;86.40;94805.59;5118118;28;20196;-67
2023/06/27 01:29:30;;;;;;;7.72;4.95;;;;;;;17.67;85.73;94809.97;5117101;28;20200;-67
2023/06/27 01:32:07;;;;;;;6.07;5.25;;;;;;;17.63;85.43;94803.63;5117518;28;20192;-67
2023/06/27 01:34:36;;;;;;;5.68;4.75;;;;;;;17.63;86.06;94800.03;5116758;28;20267;-67
2023/06/27 01:37:08;;;;;;;4.82;4.43;;;;;;;17.63;85.71;94803.63;5116624;28;20257;-67
2023/06/27 01:39:40;;;;;;;5.63;5.13;;;;;;;17.60;85.69;94806.44;5117250;28;20669;-68
2023/06/27 01:42:14;;;;;;;5.30;4.80;;;;;;;17.57;85.85;94810.81;5117589;28;20265;-67
2023/06/27 01:44:44;;;;;;;5.78;5.00;;;;;;;17.53;85.16;94799.66;5117227;28;20243;-68
2023/06/27 01:47:12;;;;;;;6.63;5.10;;;;;;;17.52;85.52;94794.50;5117657;28;20195;-68
2023/06/27 01:49:40;;;;;;;5.78;5.00;;;;;;;17.52;86.29;94797.28;5117487;28;20184;-68
2023/06/27 01:52:08;;;;;;;6.63;5.32;;;;;;;17.51;86.62;94802.09;5116666;28;20210;-68
2023/06/27 01:54:38;;;;;;;5.30;4.90;;;;;;;17.52;87.27;94795.28;5117382;28;20204;-68
2023/06/27 01:57:06;;;;;;;5.65;4.85;;;;;;;17.49;86.68;94793.31;5117451;28;20192;-68
2023/06/27 01:59:34;;;;;;;5.82;4.80;;;;;;;17.42;86.17;94787.75;5117219;28;20191;-68
2023/06/27 02:02:03;;;;;;;5.05;4.60;;;;;;;17.38;86.18;94794.56;5117177;28;20211;-67
2023/06/27 02:04:31;;;;;;;5.35;4.88;;;;;;;17.38;86.34;94795.34;5117225;28;20188;-67
2023/06/27 02:06:58;;;;;;;5.90;5.05;;;;;;;17.39;86.28;94791.34;5116935;28;20192;-67
2023/06/27 02:09:26;;;;;;;5.72;4.97;;;;;;;17.38;85.65;94800.94;5116070;28;20188;-68
2023/06/27 02:11:56;;;;;;;5.82;5.00;;;;;;;17.36;85.39;94803.34;5116034;28;20207;-68
2023/06/27 02:14:24;;;;;;;6.00;4.70;;;;;;;17.29;84.99;94806.16;5117191;28;20221;-67
2023/06/27 02:16:52;;;;;;;5.50;4.97;;;;;;;17.22;85.36;94803.38;5117123;28;20188;-67
2023/06/27 02:19:20;;;;;;;7.10;4.80;;;;;;;17.21;85.14;94813.72;5116050;28;20196;-67
2023/06/27 02:21:48;;;;;;;8.10;4.95;;;;;;;17.20;85.26;94809.34;5115510;28;20647;-67
2023/06/27 02:24:16;;;;;;;4.95;4.40;;;;;;;17.21;85.27;94812.91;5116132;28;20195;-67
2023/06/27 02:26:44;;;;;;;8.18;5.10;;;;;;;17.20;85.76;94800.97;5116984;28;20180;-67
2023/06/27 02:29:14;;;;;;;5.80;5.25;;;;;;;17.23;86.38;94805.75;5115436;28;20603;-67
2023/06/27 02:31:44;;;;;;;5.75;5.20;;;;;;;17.24;86.89;94807.31;5116672;28;20190;-67
2023/06/27 02:34:12;;;;;;;7.50;6.05;;;;;;;17.29;86.86;94806.16;5116778;28;20231;-67
2023/06/27 02:36:40;;;;;;;6.10;5.13;;;;;;;17.21;86.34;94805.38;5116094;28;20200;-67
2023/06/27 02:39:09;;;;;;;5.93;4.90;;;;;;;17.12;85.93;94813.34;5116665;28;20188;-69
2023/06/27 02:41:37;;;;;;;7.32;5.10;;;;;;;17.12;86.22;94810.56;5116364;28;20199;-68
2023/06/27 02:44:08;;;;;;;7.45;5.05;;;;;;;17.13;86.28;94820.50;5116333;28;20254;-67
2023/06/27 02:46:37;;;;;;;7.85;5.50;;;;;;;17.13;86.14;94811.34;5115719;28;20203;-68
2023/06/27 02:49:05;;;;;;;5.55;4.85;;;;;;;17.12;86.01;94807.78;5116540;28;20184;-67
2023/06/27 02:51:33;;;;;;;6.00;5.40;;;;;;;17.18;86.32;94817.31;5115259;28;20203;-68
2023/06/27 02:54:01;;;;;;;8.25;6.22;;;;;;;17.18;86.04;94808.97;5116824;28;20256;-68
2023/06/27 02:56:27;;;;;;;6.72;5.18;;;;;;;17.17;85.94;94812.91;5116359;28;20200;-68
2023/06/27 02:58:55;;;;;;;8.48;5.40;;;;;;;17.12;85.60;94816.13;5115542;28;20206;-68
2023/06/27 03:01:23;;;;;;;6.72;5.47;;;;;;;17.08;86.03;94818.13;5097962;28;20253;-68
2023/06/27 03:03:52;;;;;;;8.23;5.55;;;;;;;17.04;85.86;94820.13;5116012;28;20248;-68
2023/06/27 03:06:20;;;;;;;7.38;5.47;;;;;;;17.03;86.01;94815.72;5116153;28;20249;-68
2023/06/27 03:08:49;;;;;;;8.07;5.85;;;;;;;17.03;85.90;94815.72;5116059;28;20192;-68
2023/06/27 03:11:17;;;;;;;7.10;5.85;;;;;;;17.04;86.22;94808.97;5116016;28;20187;-68
2023/06/27 03:13:45;;;;;;;6.85;5.70;;;;;;;17.05;86.77;94816.13;5115887;28;20256;-68
2023/06/27 03:16:12;;;;;;;6.47;5.88;;;;;;;17.06;86.23;94814.94;5115914;28;20206;-68
2023/06/27 03:18:40;;;;;;;6.80;6.10;;;;;;;17.08;86.30;94815.34;5115247;28;20207;-68
2023/06/27 03:21:09;;;;;;;8.40;6.38;;;;;;;17.08;85.95;94818.13;5114787;28;20264;-68
2023/06/27 03:23:37;;;;;;;6.75;5.80;;;;;;;17.05;86.08;94814.16;5114229;28;20191;-68
2023/06/27 03:26:08;;;;;;;7.05;6.35;;;;;;;17.08;86.44;94815.34;5115084;28;20194;-67
2023/06/27 03:28:35;;;;;;;8.82;7.00;;;;;;;17.07;86.45;94810.97;5114952;28;20203;-68
2023/06/27 03:31:03;;;;;;;7.00;6.28;;;;;;;17.08;86.30;94812.56;5115517;28;20213;-68
2023/06/27 03:33:30;;;;;;;8.45;6.60;;;;;;;17.06;86.32;94814.94;5097481;28;20204;-69
2023/06/27 03:35:58;;;;;;;8.02;6.60;;;;;;;17.03;87.10;94819.34;5114799;28;20270;-69
2023/06/27 03:38:30;;;;;;;6.78;6.07;;;;;;;17.04;87.25;94806.19;5114903;28;20509;-69
2023/06/27 03:40:58;;;;;;;7.65;6.50;;;;;;;17.05;87.37;94799.41;5115022;28;20196;-68
2023/06/27 03:43:27;;;;;;;7.18;6.32;;;;;;;17.06;86.83;94817.72;5114354;28;20196;-68
2023/06/27 03:45:55;;;;;;;7.75;6.10;;;;;;;17.06;87.38;94810.16;5114593;28;20303;-68
2023/06/27 03:48:23;;;;;;;7.68;6.22;;;;;;;17.06;87.03;94817.72;5114629;28;20589;-68
2023/06/27 03:50:51;;;;;;;8.70;6.30;;;;;;;17.01;86.91;94820.94;5114858;28;20191;-68
2023/06/27 03:53:19;;;;;;;7.82;6.22;;;;;;;16.97;87.43;94822.94;5114927;28;20192;-68
2023/06/27 03:55:49;;;;;;;6.30;5.75;;;;;;;16.96;87.34;94818.56;5115384;28;20202;-68
2023/06/27 03:58:17;;;;;;;6.00;5.43;;;;;;;16.98;87.35;94825.28;5115499;28;20176;-68
2023/06/27 04:00:45;;;;;;;8.15;5.78;;;;;;;17.04;87.25;94822.91;5115718;28;20206;-68
2023/06/27 04:03:13;;;;;;;6.85;5.60;;;;;;;17.06;87.55;94826.88;5115332;28;20207;-68
2023/06/27 04:05:41;;;;;;;6.68;5.60;;;;;;;17.07;87.70;94833.25;5115498;28;20180;-68
2023/06/27 04:08:09;;;;;;;6.72;5.65;;;;;;;17.08;88.14;94843.22;5115780;28;20176;-69
2023/06/27 04:10:42;;;;;;;7.45;6.60;;;;;;;17.10;88.47;94838.00;5115689;28;20188;-68
2023/06/27 04:13:12;;;;;;;8.10;6.70;;;;;;;17.13;89.08;94840.00;5115615;28;20184;-67
2023/06/27 04:15:40;;;;;;;7.50;6.72;;;;;;;17.17;88.76;94848.34;5114435;28;20203;-72
2023/06/27 04:18:09;;;;;;;7.03;6.53;;;;;;;17.19;88.26;94846.75;5114135;28;20210;-69
2023/06/27 04:20:37;;;;;;;7.43;6.75;;;;;;;17.22;88.59;94845.97;5114501;28;20196;-67
2023/06/27 04:23:05;;;;;;;8.80;7.30;;;;;;;17.25;88.24;94841.59;5114560;28;20216;-67
2023/06/27 04:25:34;;;;;;;8.07;7.28;;;;;;;17.28;87.56;94843.56;5114369;28;20196;-67
2023/06/27 04:28:01;;;;;;;8.80;7.80;;;;;;;17.33;87.70;94843.94;5115234;28;20184;-68
2023/06/27 04:30:31;;;;;;;9.68;7.85;;;;;;;17.39;87.67;94847.09;5114572;28;20206;-68
2023/06/27 04:32:59;;;;;;;9.93;8.25;;;;;;;17.42;87.73;94851.88;5113971;28;20565;-68
2023/06/27 04:35:27;;;;;;;8.98;8.15;;;;;;;17.44;87.61;94855.06;5116407;28;20200;-68
2023/06/27 04:37:54;;;;;;;8.77;7.70;;;;;;;17.46;86.71;94849.09;5118847;28;20196;-68
2023/06/27 04:40:22;;;;;;;8.85;7.95;;;;;;;17.46;85.80;94852.66;5118898;28;20199;-68
2023/06/27 04:42:50;;;;;;;9.05;7.60;;;;;;;17.49;85.54;94854.66;5119043;28;20216;-68
2023/06/27 04:45:18;;;;;;;8.50;7.63;;;;;;;17.82;84.46;94858.16;5118369;28;20239;-68
2023/06/27 04:47:51;;;;;;;9.55;8.55;;;;;;;17.90;83.72;94856.13;5117509;28;20627;-68
2023/06/27 04:50:19;;;;;;;8.70;7.78;;;;;;;17.77;84.10;94861.38;5100984;28;20207;-68
2023/06/27 04:52:47;;;;;;;10.23;7.78;;;;;;;17.70;84.71;94853.78;5117972;28;20194;-68
2023/06/27 04:55:18;;;;;;;9.95;8.60;;;;;;;17.69;85.00;94849.44;5117423;28;20213;-68
2023/06/27 04:57:46;;;;;;;10.05;7.90;;;;;;;17.69;85.01;94848.63;5118515;28;20271;-68
2023/06/27 05:00:14;;;;;;;7.90;7.10;;;;;;;17.69;84.14;94859.78;5118620;28;20203;-68
2023/06/27 05:02:42;;;;;;;9.10;8.13;;;;;;;17.73;85.26;94855.00;5117758;28;20223;-68
2023/06/27 05:05:11;;;;;;;9.63;7.68;;;;;;;17.73;86.24;94852.19;5118831;28;20184;-68
2023/06/27 05:07:39;;;;;;;8.75;7.47;;;;;;;17.72;86.68;94850.59;5118353;28;20187;-68
2023/06/27 05:10:08;;;;;;;8.32;7.53;;;;;;;17.71;86.84;94855.38;5118452;28;20207;-68
2023/06/27 05:12:37;;;;;;;8.77;7.97;;;;;;;17.70;87.18;94856.59;5117497;28;20223;-68
2023/06/27 05:15:05;;;;;;;10.27;7.70;;;;;;;17.74;86.87;94862.16;5117490;28;20211;-67
2023/06/27 05:17:33;;;;;;;8.30;7.35;;;;;;;17.77;86.27;94855.78;5118288;28;20196;-67
2023/06/27 05:20:04;;;;;;;8.70;7.75;;;;;;;17.82;85.76;94860.16;5116958;28;20207;-68
2023/06/27 05:22:33;;;;;;;9.45;7.13;;;;;;;17.84;84.87;94858.56;5117926;28;20219;-68
2023/06/27 05:25:02;;;;;;;8.98;8.18;;;;;;;17.89;84.30;94860.91;5117187;28;20268;-68
2023/06/27 05:27:31;;;;;;;10.05;7.90;;;;;;;17.93;84.59;94864.47;5117061;28;20209;-67
2023/06/27 05:29:59;;;;;;;8.63;7.82;;;;;;;17.99;84.73;94862.06;5117774;27;20191;-67
2023/06/27 05:32:29;;;;;;;10.00;7.78;;;;;;;18.06;84.43;94864.03;5117861;28;20183;-67
2023/06/27 05:34:57;;;;;;;7.93;7.13;;;;;;;18.14;84.61;94868.38;5117915;27;20190;-68
2023/06/27 05:37:26;;;;;;;7.93;7.10;;;;;;;18.17;84.01;94865.56;5116969;28;20200;-68
2023/06/27 05:39:55;;;;;;;8.23;6.80;;;;;;;18.19;83.93;94860.41;5116792;28;20201;-69
2023/06/27 05:42:24;;;;;;;8.30;7.50;;;;;;;18.23;84.72;94863.97;5117671;28;20204;-69
2023/06/27 05:44:51;;;;;;;7.75;6.88;;;;;;;18.24;85.38;94861.97;5116458;28;20276;-68
2023/06/27 05:47:19;;;;;;;8.27;7.47;;;;;;;18.27;85.44;94863.94;5116450;28;20268;-68
2023/06/27 05:49:49;;;;;;;9.25;7.68;;;;;;;18.27;86.07;94867.53;5117220;28;20199;-69
2023/06/27 05:52:17;;;;;;;7.78;6.82;;;;;;;18.32;85.66;94862.72;5117157;28;20228;-69
2023/06/27 05:54:45;;;;;;;8.13;7.32;;;;;;;18.35;86.23;94862.69;5117156;28;20203;-69
2023/06/27 05:57:14;;;;;;;9.10;7.70;;;;;;;18.39;86.02;94860.66;5117405;28;20264;-68
2023/06/27 05:59:42;;;;;;;6.88;6.18;;;;;;;18.44;85.51;94856.63;5116339;28;20207;-69
2023/06/27 06:02:10;;;;;;;7.40;6.57;;;;;;;18.53;84.66;94862.56;5116274;28;20284;-68
2023/06/27 06:04:40;;;;;;;7.25;6.43;;;;;;;18.57;84.90;94868.13;5116438;28;20214;-68
2023/06/27 06:07:08;;;;;;;7.38;6.50;;;;;;;18.56;83.57;94864.56;5116483;28;20196;-68
2023/06/27 06:09:36;;;;;;;7.30;6.70;;;;;;;18.61;82.24;94868.91;5117088;28;20188;-68
2023/06/27 06:12:04;;;;;;;7.68;6.97;;;;;;;18.65;82.01;94864.09;5117364;28;20200;-68
2023/06/27 06:14:34;;;;;;;7.65;6.95;;;;;;;18.73;81.51;94860.06;5116861;28;20195;-69
2023/06/27 06:17:04;;;;;;;7.38;6.65;;;;;;;18.78;81.39;94854.03;5116188;28;20215;-69
2023/06/27 06:19:32;;;;;;;7.43;6.72;;;;;;;18.82;80.46;94860.41;5116064;28;20286;-69
2023/06/27 06:22:00;;;;;;;7.20;6.55;;;;;;;18.86;80.10;94854.78;5116699;28;20198;-68
2023/06/27 06:24:28;;;;;;;7.95;7.15;;;;;;;18.91;80.27;94857.91;5116493;28;20192;-68
2023/06/27 06:26:56;;;;;;;7.00;6.35;;;;;;;18.97;80.10;94859.06;5116134;28;20245;-68
2023/06/27 06:29:24;;;;;;;7.30;6.60;;;;;;;19.07;79.65;94859.41;5116896;28;20176;-68
2023/06/27 06:31:54;;;;;;;7.57;6.85;;;;;;;19.11;78.47;94854.56;5115744;28;20199;-68
2023/06/27 06:34:21;;;;;;;7.13;6.43;;;;;;;19.12;78.71;94858.94;5116296;28;20545;-68
2023/06/27 06:36:49;;;;;;;7.07;6.32;;;;;;;19.14;78.89;94853.75;5115908;28;20200;-68
2023/06/27 06:39:17;;;;;;;7.63;6.78;;;;;;;19.20;79.24;94855.66;5116301;28;20191;-68
2023/06/27 06:41:45;;;;;;;7.85;6.20;;;;;;;19.24;79.42;94848.06;5116452;28;20276;-68
2023/06/27 06:44:15;;;;;;;6.32;5.72;;;;;;;19.26;78.50;94844.84;5115610;28;20243;-68
2023/06/27 06:46:46;;;;;;;7.20;6.50;;;;;;;19.33;77.97;94855.16;5116199;28;20184;-68
2023/06/27 06:49:14;;;;;;;7.97;7.18;;;;;;;19.33;77.75;94841.19;5115936;28;20537;-68
2023/06/27 06:51:42;;;;;;;7.60;6.43;;;;;;;19.36;77.67;94840.34;5115330;28;20203;-69
2023/06/27 06:54:10;;;;;;;8.52;6.80;;;;;;;19.39;78.00;94839.50;5115366;28;20195;-68
2023/06/27 06:56:38;;;;;;;7.47;6.18;;;;;;;19.39;77.90;94839.50;5115302;28;20191;-68
2023/06/27 06:59:06;;;;;;;7.15;6.45;;;;;;;19.42;77.90;94839.47;5115154;28;20256;-69
2023/06/27 07:01:34;;;;;;;9.52;8.63;;;;;;;19.44;77.93;94839.84;5115370;28;20191;-69
2023/06/27 07:04:04;;;;;;;7.50;6.80;;;;;;;19.48;77.86;94840.59;5116212;28;20280;-69
2023/06/27 07:06:35;;;;;;;7.53;6.82;;;;;;;19.52;77.93;94845.38;5115687;28;20238;-68
2023/06/27 07:09:04;;;;;;;7.75;7.05;;;;;;;19.54;78.60;94842.97;5116311;27;20183;-68
2023/06/27 07:11:32;;;;;;;7.53;6.32;;;;;;;19.57;78.42;94842.09;5114903;28;20204;-69
2023/06/27 07:14:00;;;;;;;6.55;5.95;;;;;;;19.59;78.36;94845.28;5115596;28;20184;-69
2023/06/27 07:16:28;;;;;;;7.22;6.47;;;;;;;19.67;78.48;94839.22;5116186;28;20237;-69
2023/06/27 07:18:56;;;;;;;7.30;6.63;;;;;;;19.75;78.44;94844.72;5115789;28;20196;-69
2023/06/27 07:21:24;;;;;;;7.65;6.95;;;;;;;19.79;79.04;94837.09;5115877;28;20195;-69
2023/06/27 07:23:53;;;;;;;7.13;6.53;;;;;;;19.82;78.27;94842.63;5115717;28;20204;-68
2023/06/27 07:26:21;;;;;;;7.10;6.40;;;;;;;19.84;78.20;94845.03;5115530;28;20195;-68
2023/06/27 07:28:50;;;;;;;7.25;6.65;;;;;;;19.82;77.28;94845.44;5115410;28;20337;-69
2023/06/27 07:31:18;;;;;;;8.02;6.47;;;;;;;19.84;77.33;94853.44;5115667;28;20190;-68
2023/06/27 07:33:46;;;;;;;7.28;6.63;;;;;;;19.87;77.33;94847.00;5115935;28;20192;-69
2023/06/27 07:36:14;;;;;;;9.20;7.75;;;;;;;19.92;77.90;94835.34;5115579;28;20509;-68
2023/06/27 07:38:42;;;;;;;7.35;6.75;;;;;;;19.94;77.48;94839.31;5115078;28;20199;-69
2023/06/27 07:41:11;;;;;;;7.13;6.43;;;;;;;19.99;76.55;94837.25;5115819;28;20183;-68
2023/06/27 07:43:40;;;;;;;7.18;6.47;;;;;;;20.07;77.16;94847.13;5115655;28;20218;-68
2023/06/27 07:46:10;;;;;;;7.15;6.45;;;;;;;20.08;76.73;94837.53;5114831;28;20242;-68
2023/06/27 07:48:41;;;;;;;7.30;6.63;;;;;;;20.11;76.52;94847.88;5115732;28;20279;-69
2023/06/27 07:51:11;;;;;;;7.68;6.97;;;;;;;20.14;75.99;94844.25;5115665;28;20180;-69
2023/06/27 07:53:37;;;;;;;8.30;6.57;;;;;;;20.16;75.32;94845.41;5114316;28;20204;-68
2023/06/27 07:56:06;;;;;;;7.55;6.40;;;;;;;20.21;73.96;94849.75;5114604;28;20187;-69
2023/06/27 07:58:36;;;;;;;7.07;6.47;;;;;;;20.25;73.74;94841.31;5115874;28;20195;-68
2023/06/27 08:01:03;;;;;;;7.40;6.00;;;;;;;20.30;73.79;94843.63;5114748;28;20192;-68
2023/06/27 08:03:32;;;;;;;7.30;6.60;;;;;;;20.35;74.73;94837.56;5115052;28;20204;-69
2023/06/27 08:05:59;;;;;;;6.57;5.97;;;;;;;20.39;74.66;94839.09;5115665;28;20197;-69
2023/06/27 08:08:27;;;;;;;6.70;6.00;;;;;;;20.46;74.09;94831.81;5115839;28;20191;-68
2023/06/27 08:10:57;;;;;;;6.70;6.10;;;;;;;20.51;72.52;94834.16;5119304;28;20186;-69
2023/06/27 08:13:25;;;;;;;6.28;5.78;;;;;;;20.56;71.81;94845.69;5118154;28;20599;-69
2023/06/27 08:15:54;;;;;;;6.00;5.50;;;;;;;20.53;69.87;94843.72;5119036;28;20634;-69
2023/06/27 08:18:21;;;;;;;6.82;6.13;;;;;;;20.55;68.44;94843.28;5118758;28;20196;-69
2023/06/27 08:20:50;;;;;;;6.05;5.45;;;;;;;20.57;69.88;94846.47;5119283;28;20195;-69
2023/06/27 08:23:18;;;;;;;6.40;5.90;;;;;;;20.61;71.14;94841.59;5118920;28;20573;-69
2023/06/27 08:25:46;;;;;;;6.75;6.13;;;;;;;20.67;69.84;94848.34;5118481;28;20195;-69
2023/06/27 08:28:13;;;;;;;6.10;5.50;;;;;;;20.74;70.72;94834.22;5118970;28;20195;-69
2023/06/27 08:30:42;;;;;;;5.75;5.25;;;;;;;20.76;66.40;94842.97;5118214;28;20207;-68
2023/06/27 08:33:12;;;;;;;5.93;5.25;;;;;;;20.82;66.60;94837.69;5118302;28;20211;-69
2023/06/27 08:35:39;;;;;;;5.35;4.82;;;;;;;20.82;66.81;94841.28;5118019;28;20547;-69
2023/06/27 08:38:09;;;;;;;5.45;4.95;;;;;;;20.88;69.41;94839.59;5118977;28;20199;-69
2023/06/27 08:40:38;;;;;;;5.45;5.00;;;;;;;20.94;66.97;94834.28;5118149;28;20203;-69
2023/06/27 08:43:06;;;;;;;5.55;5.05;;;;;;;20.96;66.10;94833.88;5118831;28;20200;-69
2023/06/27 08:45:35;;;;;;;5.82;5.30;;;;;;;20.97;64.18;94836.22;5117335;28;20235;-69
2023/06/27 08:48:07;;;;;;;5.38;4.72;;;;;;;21.04;65.20;94835.31;5118778;28;20187;-68
2023/06/27 08:50:39;;;;;;;5.05;4.68;;;;;;;21.10;66.04;94831.63;5117978;28;20196;-69
2023/06/27 08:53:12;;;;;;;5.63;5.13;;;;;;;21.23;67.68;94828.19;5117883;28;20229;-69
2023/06/27 08:55:43;;;;;;;5.25;4.85;;;;;;;21.35;68.32;94816.34;5117693;28;20207;-69
2023/06/27 08:58:14;;;;;;;5.80;5.32;;;;;;;21.47;67.86;94823.38;5118296;28;20200;-69
2023/06/27 09:00:44;;;;;;;5.45;4.95;;;;;;;21.60;67.22;94825.09;5118142;28;20696;-69
2023/06/27 09:03:12;;;;;;;5.50;5.00;;;;;;;21.70;66.68;94828.13;5117553;28;20208;-69
2023/06/27 09:05:42;;;;;;;5.57;4.97;;;;;;;21.76;66.76;94820.81;5118042;28;20176;-69
2023/06/27 09:08:12;;;;;;;5.57;5.07;;;;;;;21.83;65.49;94817.84;5117532;28;20192;-68
2023/06/27 09:10:41;;;;;;;5.18;4.72;;;;;;;21.90;57.79;94826.13;5118329;28;20196;-68
2023/06/27 09:13:09;;;;;;;6.03;4.72;;;;;;;21.88;60.95;94817.34;5117497;28;20203;-69
2023/06/27 09:15:37;;;;;;;5.32;4.28;;;;;;;21.93;61.57;94822.44;5117278;28;20203;-68
2023/06/27 09:18:05;;;;;;;5.15;4.70;;;;;;;;;;5117540;28;20245;-69
2023/06/27 09:20:33;;;;;;;5.03;4.40;;;;;;;22.16;59.24;94815.19;5117670;28;20184;-69
2023/06/27 09:23:07;;;;;;;4.60;4.20;;;;;;;22.29;60.24;94816.88;5117986;28;20187;-69
2023/06/27 09:25:35;;;;;;;4.45;4.05;;;;;;;22.41;64.41;94821.06;5117755;28;20176;-69
2023/06/27 09:28:16;;;;;;;4.82;4.30;;;;;;;22.57;60.74;94821.06;5117960;28;20203;-69
2023/06/27 09:30:53;;;;;;;4.85;4.45;;;;;;;22.66;59.53;94822.47;5117019;28;20627;-68
2023/06/27 09:33:21;;;;;;;4.22;3.92;;;;;;;22.73;60.76;94819.50;5116881;28;20195;-69
2023/06/27 09:35:49;;;;;;;5.50;4.05;;;;;;;22.82;57.70;94826.13;5117804;28;20219;-69
2023/06/27 09:38:20;;;;;;;4.05;3.65;;;;;;;22.84;58.15;94822.88;5116918;28;20203;-69
2023/06/27 09:40:49;;;;;;;3.92;3.53;;;;;;;22.85;57.77;94815.22;5116995;28;20643;-69
2023/06/27 09:43:21;;;;;;;4.72;4.25;;;;;;;22.99;62.47;94817.72;5117319;28;20207;-68
2023/06/27 09:46:03;;;;;;;4.63;4.18;;;;;;;23.15;61.33;94826.13;5117616;28;20235;-69
2023/06/27 09:48:31;;;;;;;4.47;4.13;;;;;;;23.43;57.28;94818.19;5116487;28;20195;-69
2023/06/27 09:51:03;;;;;;;4.28;3.90;;;;;;;23.47;57.06;94818.91;5116844;28;20295;-69
2023/06/27 09:53:34;;;;;;;4.00;3.70;;;;;;;23.45;56.28;94816.50;5117234;28;20191;-68
2023/06/27 09:56:02;;;;;;;4.35;4.03;;;;;;;23.41;52.33;94818.63;5116757;28;20195;-69
2023/06/27 09:58:30;;;;;;;4.38;3.60;;;;;;;23.46;53.39;94814.50;5116153;28;20192;-69
2023/06/27 10:01:06;;;;;;;4.70;4.30;;;;;;;23.57;55.60;94819.81;5117160;28;20215;-69
2023/06/27 10:03:35;;;;;;;4.65;4.25;;;;;;;23.64;53.53;94812.00;5117515;28;20235;-69
2023/06/27 10:06:04;;;;;;;4.55;4.15;;;;;;;23.70;54.11;94807.41;5117400;28;20249;-68
2023/06/27 10:08:33;;;;;;;4.57;4.15;;;;;;;23.90;55.04;94810.09;5116441;28;20199;-69
2023/06/27 10:11:00;;;;;;;4.57;4.13;;;;;;;24.06;58.06;94816.88;5117135;28;20200;-69
2023/06/27 10:13:28;;;;;;;4.30;3.95;;;;;;;24.15;54.48;94817.03;5117206;28;20215;-69
2023/06/27 10:15:56;;;;;;;5.65;4.50;;;;;;;24.14;54.22;94818.25;5116748;28;20240;-69
2023/06/27 10:18:24;;;;;;;4.57;4.18;;;;;;;24.17;49.30;94818.16;5115939;28;20272;-68
2023/06/27 10:20:55;;;;;;;4.60;4.20;;;;;;;24.18;51.14;94811.28;5115961;28;20196;-68
2023/06/27 10:23:23;;;;;;;5.47;4.20;;;;;;;24.22;49.35;94814.78;5116150;28;20260;-68
2023/06/27 10:25:55;;;;;;;4.85;3.75;;;;;;;24.23;51.07;94802.28;5116829;28;20188;-68
2023/06/27 10:28:23;;;;;;;4.82;4.30;;;;;;;24.38;56.80;94802.63;5117173;28;20199;-69
2023/06/27 10:30:51;;;;;;;5.07;4.60;;;;;;;24.52;53.14;94801.44;5115824;28;20591;-69
2023/06/27 10:33:27;;;;;;;4.80;4.32;;;;;;;24.66;51.10;94794.56;5114426;28;20244;-69
2023/06/27 10:36:01;;;;;;;4.57;4.07;;;;;;;24.76;54.08;94798.25;5116925;28;20191;-69
2023/06/27 10:38:35;;;;;;;4.60;4.20;;;;;;;24.72;47.27;94795.56;5116689;28;20191;-69
2023/06/27 10:41:33;;;;;;;5.28;4.78;;;;;;;24.70;49.49;94786.78;5115566;28;20600;-68
2023/06/27 10:44:11;;;;;;;5.03;4.43;;;;;;;24.60;50.04;94787.91;5069717;28;20238;-68
2023/06/27 10:46:38;;;;;;;4.85;4.22;;;;;;;24.58;52.06;94790.38;5116681;28;20187;-68
2023/06/27 10:49:07;;;;;;;4.90;4.50;;;;;;;24.68;51.05;94792.06;5115721;28;20260;-68
2023/06/27 10:51:36;;;;;;;5.45;4.20;;;;;;;24.73;48.41;94789.47;5116380;28;20274;-68
2023/06/27 10:54:18;;;;;;;4.63;4.22;;;;;;;24.85;48.34;94793.53;5115731;28;20196;-68
2023/06/27 10:56:53;;;;;;;4.82;4.10;;;;;;;24.90;47.77;94787.31;5116708;28;20562;-68
2023/06/27 10:59:23;;;;;;;4.50;4.10;;;;;;;24.89;44.71;94784.94;5115231;28;20206;-68
2023/06/27 11:01:52;;;;;;;4.40;4.00;;;;;;;24.97;47.22;94783.47;5115776;28;20261;-68
2023/06/27 11:04:22;;;;;;;4.53;3.85;;;;;;;25.01;48.70;94781.31;5115507;28;20216;-68
2023/06/27 11:06:49;;;;;;;4.75;4.35;;;;;;;25.05;48.20;94775.56;5116107;28;20516;-68
2023/06/27 11:09:19;;;;;;;5.13;4.70;;;;;;;25.13;49.57;94774.13;5115094;28;20184;-68
2023/06/27 11:12:09;;;;;;;4.93;4.45;;;;;;;25.15;50.26;94772.41;5114766;28;20203;-68
2023/06/27 11:14:40;;;;;;;4.85;4.45;;;;;;;25.28;51.64;94766.72;5115235;28;20188;-68
2023/06/27 11:17:08;;;;;;;4.60;4.20;;;;;;;25.33;48.62;94768.97;5115625;28;20199;-68
2023/06/27 11:19:38;;;;;;;4.78;4.38;;;;;;;25.29;47.15;94761.88;5114992;28;20183;-68
2023/06/27 11:22:05;;;;;;;4.90;4.50;;;;;;;25.40;47.78;94756.63;5115798;28;20203;-68
2023/06/27 11:24:35;;;;;;;4.70;4.30;;;;;;;25.44;50.25;94755.25;5115739;28;20233;-68
2023/06/27 11:27:08;;;;;;;4.95;4.45;;;;;;;25.56;47.50;94750.81;5114991;28;20207;-68
2023/06/27 11:29:36;;;;;;;4.43;4.00;;;;;;;25.58;44.42;94756.00;5115773;28;20195;-68
2023/06/27 11:32:05;;;;;;;5.18;4.75;;;;;;;25.56;42.55;94747.97;5116058;28;20198;-68
2023/06/27 11:34:33;;;;;;;5.40;4.57;;;;;;;25.60;43.37;94745.84;5114829;28;20206;-68
2023/06/27 11:37:01;;;;;;;4.55;4.15;;;;;;;25.67;43.31;94751.22;5114801;28;20211;-68
2023/06/27 11:39:29;;;;;;;6.05;4.32;;;;;;;25.72;43.08;94744.19;5114636;28;20195;-68
2023/06/27 11:41:57;;;;;;;4.38;4.05;;;;;;;25.77;43.26;94739.97;5115643;28;20245;-68
2023/06/27 11:44:34;;;;;;;4.20;3.80;;;;;;;25.80;44.50;94739.88;5118778;28;20223;-68